Sanko Kairyu — JI3709 — position and weather

sailwx.info

Track history (hours):
 
Tides and Currents Weather Stations Pressure Air Temp Water Temp Dewpoint Dewpoint Depression Visibility Wind Speed Wind Dir Waves Ship Positions

Sanko Kairyu

Last reported at 2018-Feb-25 03:27 UTC. Time now 2018-Feb-25 21:19 UTC.
Position N 34°39' E 135°27'.

Length 38 m.

Type: Tanker. MMSI: 431301672.

Date/timePositionNaut miles runAvg speedWind from/ knotsBaromVisibWave heightAir tempDewpointWater temp
2018-Feb-25 03:27N 34°39' E 135°27'0 0.0
2018-Feb-25 03:00N 34°39' E 135°27'0 0.0
2018-Feb-25 02:30N 34°39' E 135°27'0 0.0
2018-Feb-25 02:00N 34°39' E 135°27'0 0.0
2018-Feb-25 01:30N 34°39' E 135°27'0 0.0
2018-Feb-25 00:59N 34°39' E 135°27'0 0.3
2018-Feb-25 00:30N 34°39' E 135°27'4 7.1
2018-Feb-25 00:00N 34°36' E 135°24'5 9.2
2018-Feb-24 23:31N 34°34' E 135°19'5 9.5
2018-Feb-24 23:01N 34°32' E 135°14'3 6.4
2018-Feb-24 22:30N 34°28' E 135°14'5 9.4
2018-Feb-24 22:00N 34°25' E 135°10'5 9.5
2018-Feb-24 21:30N 34°22' E 135°06'5 9.1
2018-Feb-24 20:59N 34°17' E 135°04'5 9.4
2018-Feb-24 20:29N 34°13' E 135°02'5 9.7
2018-Feb-24 20:00N 34°08' E 135°03'6 9.3
2018-Feb-24 19:20N 34°02' E 135°02'97 5.6
2018-Feb-24 02:00N 34°49' E 136°45'510.0
2018-Feb-24 01:30N 34°54' E 136°45'510.1
2018-Feb-24 01:00N 34°58' E 136°48'510.2
2018-Feb-24 00:30N 35°03' E 136°51'4 7.1
2018-Feb-23 23:58N 35°06' E 136°54'0 0.0
2018-Feb-23 23:26N 35°06' E 136°54'0 0.0
2018-Feb-23 22:59N 35°06' E 136°54'0 0.0
2018-Feb-23 22:29N 35°06' E 136°54'0 0.0
2018-Feb-23 21:52N 35°06' E 136°54'0 0.0
2018-Feb-23 21:29N 35°06' E 136°54'0 0.0
2018-Feb-23 21:00N 35°06' E 136°54'0 0.0
2018-Feb-23 20:28N 35°06' E 136°54'0 0.0
2018-Feb-23 19:55N 35°06' E 136°54'0 0.0
2018-Feb-23 19:28N 35°06' E 136°54'0 0.0
2018-Feb-23 18:58N 35°06' E 136°54'0 0.0
2018-Feb-23 18:28N 35°06' E 136°54'0 0.0
2018-Feb-23 18:00N 35°06' E 136°54'0 0.0
2018-Feb-23 17:27N 35°06' E 136°54'0 0.0
2018-Feb-23 17:00N 35°06' E 136°54'0 0.0
2018-Feb-23 16:30N 35°06' E 136°54'0 0.0
2018-Feb-23 16:00N 35°06' E 136°54'0 0.0
2018-Feb-23 15:26N 35°06' E 136°54'0 0.0
2018-Feb-23 15:00N 35°06' E 136°54'0 0.0
2018-Feb-23 14:28N 35°06' E 136°54'0 0.0
2018-Feb-23 14:00N 35°06' E 136°54'0 0.0
2018-Feb-23 13:30N 35°06' E 136°54'0 0.0
2018-Feb-23 13:00N 35°06' E 136°54'0 0.0
2018-Feb-23 12:30N 35°06' E 136°54'0 0.0
2018-Feb-23 11:57N 35°06' E 136°54'0 0.0
2018-Feb-23 11:25N 35°06' E 136°54'0 0.0
2018-Feb-23 10:59N 35°06' E 136°54'0 0.0
2018-Feb-23 10:27N 35°06' E 136°54'1 2.8
2018-Feb-23 10:00N 35°05' E 136°53'4 8.7
2018-Feb-23 09:30N 35°01' E 136°51'4 8.8
2018-Feb-23 09:00N 34°57' E 136°48'4 8.1
2018-Feb-23 08:30N 34°53' E 136°47'4 8.4
2018-Feb-23 08:00N 34°49' E 136°48'8 1.8
2018-Feb-23 03:42N 34°51' E 136°57'1 1.4
2018-Feb-23 03:19N 34°51' E 136°57'0 0.5
2018-Feb-23 02:57N 34°51' E 136°57'0 0.0
2018-Feb-23 02:27N 34°51' E 136°57'104 5.2
2018-Feb-22 06:40N 34°09' E 135°02'210.0
2018-Feb-22 06:28N 34°11' E 135°02'5 9.9
2018-Feb-22 06:00N 34°15' E 135°03'510.4
2018-Feb-22 05:30N 34°20' E 135°05'5 9.4
2018-Feb-22 05:00N 34°24' E 135°09'4 9.1
2018-Feb-22 04:30N 34°27' E 135°12'5 9.5
2018-Feb-22 04:00N 34°31' E 135°16'5 9.4
2018-Feb-22 03:30N 34°34' E 135°20'5 9.3
2018-Feb-22 03:00N 34°38' E 135°24'3 6.5
2018-Feb-22 02:30N 34°39' E 135°27'0 0.8
2018-Feb-22 01:59N 34°38' E 135°28'2 4.0
2018-Feb-22 01:31N 34°39' E 135°25'4 8.5
2018-Feb-22 01:00N 34°40' E 135°20'5 9.1
2018-Feb-22 00:30N 34°40' E 135°15'1 2.5
2018-Feb-22 00:00N 34°40' E 135°13'0 0.0
2018-Feb-21 23:29N 34°40' E 135°13'0 0.0
2018-Feb-21 23:00N 34°40' E 135°13'0 0.0
2018-Feb-21 22:30N 34°40' E 135°13'0 0.0
2018-Feb-21 22:00N 34°40' E 135°13'0 0.1
2018-Feb-21 21:30N 34°40' E 135°13'4 7.6
2018-Feb-21 21:00N 34°41' E 135°18'5 9.4
2018-Feb-21 20:30N 34°40' E 135°24'3 6.3
2018-Feb-21 19:59N 34°39' E 135°27'0 0.0
2018-Feb-21 19:28N 34°39' E 135°27'0 0.0
2018-Feb-21 18:58N 34°39' E 135°27'0 0.0
2018-Feb-21 18:25N 34°39' E 135°27'0 0.0
2018-Feb-21 17:58N 34°39' E 135°27'0 0.0
2018-Feb-21 17:28N 34°39' E 135°27'0 0.0
2018-Feb-21 16:58N 34°39' E 135°27'0 0.0
2018-Feb-21 16:28N 34°39' E 135°27'0 0.0
2018-Feb-21 15:58N 34°39' E 135°27'0 0.0
2018-Feb-21 15:28N 34°39' E 135°27'0 0.0
2018-Feb-21 14:58N 34°39' E 135°27'0 0.0
2018-Feb-21 14:28N 34°39' E 135°27'0 0.0
2018-Feb-21 13:58N 34°39' E 135°27'0 0.0
2018-Feb-21 13:28N 34°39' E 135°27'0 0.0
2018-Feb-21 07:12N 34°39' E 135°27'0 0.0
2018-Feb-21 07:00N 34°39' E 135°27'0 0.0
2018-Feb-21 06:30N 34°39' E 135°27'0 0.0
2018-Feb-21 06:00N 34°39' E 135°27'0 0.0
2018-Feb-21 05:28N 34°39' E 135°27'0 0.0
2018-Feb-21 04:57N 34°39' E 135°27'0 0.0
2018-Feb-21 04:30N 34°39' E 135°27'0 0.0
2018-Feb-21 04:00N 34°39' E 135°27'0 0.0
2018-Feb-21 03:30N 34°39' E 135°27'0 0.0
2018-Feb-21 03:00N 34°39' E 135°27'0 0.0
2018-Feb-21 02:30N 34°39' E 135°27'0 0.5
2018-Feb-21 01:55N 34°38' E 135°28'0 0.0
2018-Feb-21 01:28N 34°38' E 135°28'0 0.6
2018-Feb-21 01:00N 34°39' E 135°27'0 0.0
2018-Feb-21 00:30N 34°39' E 135°27'0 0.0
2018-Feb-21 00:00N 34°39' E 135°27'0 0.0
2018-Feb-20 23:29N 34°39' E 135°27'0 0.0
2018-Feb-20 23:00N 34°39' E 135°27'0 0.0
2018-Feb-20 10:02N 34°39' E 135°27'0 0.0
2018-Feb-20 09:56N 34°39' E 135°27'1 2.2
2018-Feb-20 09:31N 34°39' E 135°26'5 9.3
2018-Feb-20 09:00N 34°39' E 135°21'5 9.8
2018-Feb-20 08:30N 34°39' E 135°15'5 9.7
2018-Feb-20 08:00N 34°39' E 135°09'0 0.4
2018-Feb-20 07:31N 34°39' E 135°08'0 0.0
2018-Feb-20 06:58N 34°39' E 135°08'0 0.0
2018-Feb-20 06:31N 34°39' E 135°08'0 0.0
2018-Feb-20 05:58N 34°39' E 135°08'0 0.0
2018-Feb-20 05:28N 34°39' E 135°08'0 0.0
2018-Feb-20 04:58N 34°39' E 135°08'0 0.0
2018-Feb-20 04:28N 34°39' E 135°08'0 0.8
2018-Feb-20 03:58N 34°39' E 135°09'0 0.0
2018-Feb-20 03:28N 34°39' E 135°09'0 0.0
2018-Feb-20 02:55N 34°39' E 135°09'1 1.8
2018-Feb-20 02:30N 34°38' E 135°10'510.2
2018-Feb-20 02:01N 34°38' E 135°16'5 9.7
2018-Feb-20 01:30N 34°40' E 135°22'3 6.1
2018-Feb-20 01:00N 34°40' E 135°26'0 0.0
2018-Feb-20 00:30N 34°40' E 135°26'0 0.9
2018-Feb-20 00:00N 34°40' E 135°25'0 0.5
2018-Feb-19 23:30N 34°40' E 135°25'2 4.5
2018-Feb-19 22:58N 34°39' E 135°27'0 0.0
2018-Feb-19 22:28N 34°39' E 135°27'0 0.0
2018-Feb-19 21:58N 34°39' E 135°27'0 0.0
2018-Feb-19 21:25N 34°39' E 135°27'0 0.0
2018-Feb-19 21:01N 34°39' E 135°27'0 0.0
2018-Feb-19 20:28N 34°39' E 135°27'0 0.0
2018-Feb-19 19:58N 34°39' E 135°27'0 0.0
2018-Feb-19 19:28N 34°39' E 135°27'0 0.0
2018-Feb-19 18:58N 34°39' E 135°27'0 0.0
2018-Feb-19 18:28N 34°39' E 135°27'0 0.0
2018-Feb-19 17:58N 34°39' E 135°27'0 0.0
2018-Feb-19 17:28N 34°39' E 135°27'0 0.0
2018-Feb-19 16:58N 34°39' E 135°27'0 0.0
2018-Feb-19 16:28N 34°39' E 135°27'0 0.0
2018-Feb-19 15:58N 34°39' E 135°27'0 0.0
2018-Feb-19 15:28N 34°39' E 135°27'0 0.0
2018-Feb-19 14:58N 34°39' E 135°27'0 0.0
2018-Feb-19 14:28N 34°39' E 135°27'0 0.0
2018-Feb-19 13:58N 34°39' E 135°27'0 0.0
2018-Feb-19 13:28N 34°39' E 135°27'0 0.0
2018-Feb-19 12:58N 34°39' E 135°27'2 3.7
2018-Feb-19 12:30N 34°37' E 135°26'5 9.2
2018-Feb-19 12:00N 34°34' E 135°22'5 9.8
2018-Feb-19 11:29N 34°31' E 135°17'510.0
2018-Feb-19 11:00N 34°28' E 135°13'5 9.9
2018-Feb-19 10:30N 34°25' E 135°08'5 9.8
2018-Feb-19 10:00N 34°21' E 135°04'5 9.6
2018-Feb-19 09:30N 34°18' E 135°00'5 9.2
2018-Feb-19 09:00N 34°14' E 134°56'6 9.6
2018-Feb-19 08:25N 34°12' E 134°51'  
Track history (hours):
 
Tides and Currents Weather Stations Pressure Air Temp Water Temp Dewpoint Dewpoint Depression Visibility Wind Speed Wind Dir Waves Ship Positions

Sanko Kairyu

Last reported at 2018-Feb-25 03:27 UTC. Time now 2018-Feb-25 21:19 UTC.
Position N 34°39' E 135°27'.

Length 38 m.

Type: Tanker. MMSI: 431301672.

Date/timePositionNaut miles runAvg speedWind from/ knotsBaromVisibWave heightAir tempDewpointWater temp
2018-Feb-25 03:27N 34°39' E 135°27'0 0.0
2018-Feb-25 03:00N 34°39' E 135°27'0 0.0
2018-Feb-25 02:30N 34°39' E 135°27'0 0.0
2018-Feb-25 02:00N 34°39' E 135°27'0 0.0
2018-Feb-25 01:30N 34°39' E 135°27'0 0.0
2018-Feb-25 00:59N 34°39' E 135°27'0 0.3
2018-Feb-25 00:30N 34°39' E 135°27'4 7.1
2018-Feb-25 00:00N 34°36' E 135°24'5 9.2
2018-Feb-24 23:31N 34°34' E 135°19'5 9.5
2018-Feb-24 23:01N 34°32' E 135°14'3 6.4
2018-Feb-24 22:30N 34°28' E 135°14'5 9.4
2018-Feb-24 22:00N 34°25' E 135°10'5 9.5
2018-Feb-24 21:30N 34°22' E 135°06'5 9.1
2018-Feb-24 20:59N 34°17' E 135°04'5 9.4
2018-Feb-24 20:29N 34°13' E 135°02'5 9.7
2018-Feb-24 20:00N 34°08' E 135°03'6 9.3
2018-Feb-24 19:20N 34°02' E 135°02'97 5.6
2018-Feb-24 02:00N 34°49' E 136°45'510.0
2018-Feb-24 01:30N 34°54' E 136°45'510.1
2018-Feb-24 01:00N 34°58' E 136°48'510.2
2018-Feb-24 00:30N 35°03' E 136°51'4 7.1
2018-Feb-23 23:58N 35°06' E 136°54'0 0.0
2018-Feb-23 23:26N 35°06' E 136°54'0 0.0
2018-Feb-23 22:59N 35°06' E 136°54'0 0.0
2018-Feb-23 22:29N 35°06' E 136°54'0 0.0
2018-Feb-23 21:52N 35°06' E 136°54'0 0.0
2018-Feb-23 21:29N 35°06' E 136°54'0 0.0
2018-Feb-23 21:00N 35°06' E 136°54'0 0.0
2018-Feb-23 20:28N 35°06' E 136°54'0 0.0
2018-Feb-23 19:55N 35°06' E 136°54'0 0.0
2018-Feb-23 19:28N 35°06' E 136°54'0 0.0
2018-Feb-23 18:58N 35°06' E 136°54'0 0.0
2018-Feb-23 18:28N 35°06' E 136°54'0 0.0
2018-Feb-23 18:00N 35°06' E 136°54'0 0.0
2018-Feb-23 17:27N 35°06' E 136°54'0 0.0
2018-Feb-23 17:00N 35°06' E 136°54'0 0.0
2018-Feb-23 16:30N 35°06' E 136°54'0 0.0
2018-Feb-23 16:00N 35°06' E 136°54'0 0.0
2018-Feb-23 15:26N 35°06' E 136°54'0 0.0
2018-Feb-23 15:00N 35°06' E 136°54'0 0.0
2018-Feb-23 14:28N 35°06' E 136°54'0 0.0
2018-Feb-23 14:00N 35°06' E 136°54'0 0.0
2018-Feb-23 13:30N 35°06' E 136°54'0 0.0
2018-Feb-23 13:00N 35°06' E 136°54'0 0.0
2018-Feb-23 12:30N 35°06' E 136°54'0 0.0
2018-Feb-23 11:57N 35°06' E 136°54'0 0.0
2018-Feb-23 11:25N 35°06' E 136°54'0 0.0
2018-Feb-23 10:59N 35°06' E 136°54'0 0.0
2018-Feb-23 10:27N 35°06' E 136°54'1 2.8
2018-Feb-23 10:00N 35°05' E 136°53'4 8.7
2018-Feb-23 09:30N 35°01' E 136°51'4 8.8
2018-Feb-23 09:00N 34°57' E 136°48'4 8.1
2018-Feb-23 08:30N 34°53' E 136°47'4 8.4
2018-Feb-23 08:00N 34°49' E 136°48'8 1.8
2018-Feb-23 03:42N 34°51' E 136°57'1 1.4
2018-Feb-23 03:19N 34°51' E 136°57'0 0.5
2018-Feb-23 02:57N 34°51' E 136°57'0 0.0
2018-Feb-23 02:27N 34°51' E 136°57'104 5.2
2018-Feb-22 06:40N 34°09' E 135°02'210.0
2018-Feb-22 06:28N 34°11' E 135°02'5 9.9
2018-Feb-22 06:00N 34°15' E 135°03'510.4
2018-Feb-22 05:30N 34°20' E 135°05'5 9.4
2018-Feb-22 05:00N 34°24' E 135°09'4 9.1
2018-Feb-22 04:30N 34°27' E 135°12'5 9.5
2018-Feb-22 04:00N 34°31' E 135°16'5 9.4
2018-Feb-22 03:30N 34°34' E 135°20'5 9.3
2018-Feb-22 03:00N 34°38' E 135°24'3 6.5
2018-Feb-22 02:30N 34°39' E 135°27'0 0.8
2018-Feb-22 01:59N 34°38' E 135°28'2 4.0
2018-Feb-22 01:31N 34°39' E 135°25'4 8.5
2018-Feb-22 01:00N 34°40' E 135°20'5 9.1
2018-Feb-22 00:30N 34°40' E 135°15'1 2.5
2018-Feb-22 00:00N 34°40' E 135°13'0 0.0
2018-Feb-21 23:29N 34°40' E 135°13'0 0.0
2018-Feb-21 23:00N 34°40' E 135°13'0 0.0
2018-Feb-21 22:30N 34°40' E 135°13'0 0.0
2018-Feb-21 22:00N 34°40' E 135°13'0 0.1
2018-Feb-21 21:30N 34°40' E 135°13'4 7.6
2018-Feb-21 21:00N 34°41' E 135°18'5 9.4
2018-Feb-21 20:30N 34°40' E 135°24'3 6.3
2018-Feb-21 19:59N 34°39' E 135°27'0 0.0
2018-Feb-21 19:28N 34°39' E 135°27'0 0.0
2018-Feb-21 18:58N 34°39' E 135°27'0 0.0
2018-Feb-21 18:25N 34°39' E 135°27'0 0.0
2018-Feb-21 17:58N 34°39' E 135°27'0 0.0
2018-Feb-21 17:28N 34°39' E 135°27'0 0.0
2018-Feb-21 16:58N 34°39' E 135°27'0 0.0
2018-Feb-21 16:28N 34°39' E 135°27'0 0.0
2018-Feb-21 15:58N 34°39' E 135°27'0 0.0
2018-Feb-21 15:28N 34°39' E 135°27'0 0.0
2018-Feb-21 14:58N 34°39' E 135°27'0 0.0
2018-Feb-21 14:28N 34°39' E 135°27'0 0.0
2018-Feb-21 13:58N 34°39' E 135°27'0 0.0
2018-Feb-21 13:28N 34°39' E 135°27'0 0.0
2018-Feb-21 07:12N 34°39' E 135°27'0 0.0
2018-Feb-21 07:00N 34°39' E 135°27'0 0.0
2018-Feb-21 06:30N 34°39' E 135°27'0 0.0
2018-Feb-21 06:00N 34°39' E 135°27'0 0.0
2018-Feb-21 05:28N 34°39' E 135°27'0 0.0
2018-Feb-21 04:57N 34°39' E 135°27'0 0.0
2018-Feb-21 04:30N 34°39' E 135°27'0 0.0
2018-Feb-21 04:00N 34°39' E 135°27'0 0.0
2018-Feb-21 03:30N 34°39' E 135°27'0 0.0
2018-Feb-21 03:00N 34°39' E 135°27'0 0.0
2018-Feb-21 02:30N 34°39' E 135°27'0 0.5
2018-Feb-21 01:55N 34°38' E 135°28'0 0.0
2018-Feb-21 01:28N 34°38' E 135°28'0 0.6
2018-Feb-21 01:00N 34°39' E 135°27'0 0.0
2018-Feb-21 00:30N 34°39' E 135°27'0 0.0
2018-Feb-21 00:00N 34°39' E 135°27'0 0.0
2018-Feb-20 23:29N 34°39' E 135°27'0 0.0
2018-Feb-20 23:00N 34°39' E 135°27'0 0.0
2018-Feb-20 10:02N 34°39' E 135°27'0 0.0
2018-Feb-20 09:56N 34°39' E 135°27'1 2.2
2018-Feb-20 09:31N 34°39' E 135°26'5 9.3
2018-Feb-20 09:00N 34°39' E 135°21'5 9.8
2018-Feb-20 08:30N 34°39' E 135°15'5 9.7
2018-Feb-20 08:00N 34°39' E 135°09'0 0.4
2018-Feb-20 07:31N 34°39' E 135°08'0 0.0
2018-Feb-20 06:58N 34°39' E 135°08'0 0.0
2018-Feb-20 06:31N 34°39' E 135°08'0 0.0
2018-Feb-20 05:58N 34°39' E 135°08'0 0.0
2018-Feb-20 05:28N 34°39' E 135°08'0 0.0
2018-Feb-20 04:58N 34°39' E 135°08'0 0.0
2018-Feb-20 04:28N 34°39' E 135°08'0 0.8
2018-Feb-20 03:58N 34°39' E 135°09'0 0.0
2018-Feb-20 03:28N 34°39' E 135°09'0 0.0
2018-Feb-20 02:55N 34°39' E 135°09'1 1.8
2018-Feb-20 02:30N 34°38' E 135°10'510.2
2018-Feb-20 02:01N 34°38' E 135°16'5 9.7
2018-Feb-20 01:30N 34°40' E 135°22'3 6.1
2018-Feb-20 01:00N 34°40' E 135°26'0 0.0
2018-Feb-20 00:30N 34°40' E 135°26'0 0.9
2018-Feb-20 00:00N 34°40' E 135°25'0 0.5
2018-Feb-19 23:30N 34°40' E 135°25'2 4.5
2018-Feb-19 22:58N 34°39' E 135°27'0 0.0
2018-Feb-19 22:28N 34°39' E 135°27'0 0.0
2018-Feb-19 21:58N 34°39' E 135°27'0 0.0
2018-Feb-19 21:25N 34°39' E 135°27'0 0.0
2018-Feb-19 21:01N 34°39' E 135°27'0 0.0
2018-Feb-19 20:28N 34°39' E 135°27'0 0.0
2018-Feb-19 19:58N 34°39' E 135°27'0 0.0
2018-Feb-19 19:28N 34°39' E 135°27'0 0.0
2018-Feb-19 18:58N 34°39' E 135°27'0 0.0
2018-Feb-19 18:28N 34°39' E 135°27'0 0.0
2018-Feb-19 17:58N 34°39' E 135°27'0 0.0
2018-Feb-19 17:28N 34°39' E 135°27'0 0.0
2018-Feb-19 16:58N 34°39' E 135°27'0 0.0
2018-Feb-19 16:28N 34°39' E 135°27'0 0.0
2018-Feb-19 15:58N 34°39' E 135°27'0 0.0
2018-Feb-19 15:28N 34°39' E 135°27'0 0.0
2018-Feb-19 14:58N 34°39' E 135°27'0 0.0
2018-Feb-19 14:28N 34°39' E 135°27'0 0.0
2018-Feb-19 13:58N 34°39' E 135°27'0 0.0
2018-Feb-19 13:28N 34°39' E 135°27'0 0.0
2018-Feb-19 12:58N 34°39' E 135°27'2 3.7
2018-Feb-19 12:30N 34°37' E 135°26'5 9.2
2018-Feb-19 12:00N 34°34' E 135°22'5 9.8
2018-Feb-19 11:29N 34°31' E 135°17'510.0
2018-Feb-19 11:00N 34°28' E 135°13'5 9.9
2018-Feb-19 10:30N 34°25' E 135°08'5 9.8
2018-Feb-19 10:00N 34°21' E 135°04'5 9.6
2018-Feb-19 09:30N 34°18' E 135°00'5 9.2
2018-Feb-19 09:00N 34°14' E 134°56'6 9.6
2018-Feb-19 08:25N 34°12' E 134°51'  

Dump ship's entire track history